Terminal Aerodrome Forecast
Issued by NWS

Home | Current Version | Previous Version | Text Only | Print | Product List | Glossary On
Versions: 1 2 3 4 5 6 7 8 9 10 11 12 13 14 15 16 17 18
000
FTUS44 KSJT 291742
TAFSOA
TAF
KSOA 291742Z 2918/3018 06009KT P6SM VCTS BKN050CB
     FM300200 VRB04KT P6SM SCT120
     FM301000 05005KT P6SM BKN015
     FM301600 08010KT P6SM SCT015 BKN040=

USA.gov is the U.S. government's official web portal to all federal, state and local government web resources and services.